Time;durP1;ratioP1;P1;durP2;ratioP2;P2;SDS_P1;SDS_P2;PMS_P1;PMS_P2;Temp;Humidity;BMP_temperature;BMP_pressure;BME280_temperature;BME280_humidity;BME280_pressure;Samples;Min_cycle;Max_cycle;Signal;HPM_P1;HPM_P2
2023/04/16 00:00:37;;;;;;;15.13;13.53;;;8.80;99.90;;;;;;5032751;28;20387;-89
2023/04/16 00:03:03;;;;;;;13.50;12.20;;;8.70;99.90;;;;;;5033811;28;20391;-87
2023/04/16 00:05:28;;;;;;;14.67;12.97;;;8.80;99.90;;;;;;5043442;28;20383;-87
2023/04/16 00:07:54;;;;;;;13.87;12.47;;;8.70;99.90;;;;;;5058582;28;20498;-88
2023/04/16 00:10:20;;;;;;;14.80;13.40;;;8.70;99.90;;;;;;5058011;28;20462;-87
2023/04/16 00:12:45;;;;;;;14.70;13.20;;;8.70;99.90;;;;;;5047181;28;20488;-86
2023/04/16 00:15:11;;;;;;;14.27;12.77;;;8.80;99.90;;;;;;5032420;28;20394;-86
2023/04/16 00:17:36;;;;;;;15.00;13.50;;;8.80;99.90;;;;;;5033104;28;20482;-85
2023/04/16 00:20:02;;;;;;;14.40;12.90;;;8.80;99.90;;;;;;5033262;28;20885;-86
2023/04/16 00:22:27;;;;;;;14.13;12.73;;;8.80;99.90;;;;;;5031367;28;20394;-86
2023/04/16 00:24:53;;;;;;;15.13;13.53;;;8.80;99.90;;;;;;5030446;28;20403;-86
2023/04/16 00:27:19;;;;;;;13.10;11.80;;;8.80;99.90;;;;;;5033190;28;20417;-89
2023/04/16 00:29:44;;;;;;;13.10;11.80;;;8.80;99.90;;;;;;5033284;28;20458;-86
2023/04/16 00:32:10;;;;;;;12.23;10.93;;;8.70;99.90;;;;;;5032386;28;20773;-87
2023/04/16 00:34:36;;;;;;;14.25;12.75;;;8.80;99.90;;;;;;5031750;28;20395;-88
2023/04/16 00:37:01;;;;;;;13.70;11.20;;;8.80;99.90;;;;;;5032618;28;20386;-87
2023/04/16 00:39:27;;;;;;;12.60;11.30;;;8.80;99.90;;;;;;5032722;28;20391;-86
2023/04/16 00:41:52;;;;;;;14.07;12.68;;;8.80;99.90;;;;;;5031496;28;20462;-86
2023/04/16 00:44:18;;;;;;;17.27;15.40;;;8.90;99.90;;;;;;5032554;28;20434;-87
2023/04/16 00:46:44;;;;;;;12.53;11.43;;;8.90;99.90;;;;;;5030794;28;20421;-86
2023/04/16 00:49:10;;;;;;;14.43;13.02;;;8.80;99.90;;;;;;5032203;28;20395;-87
2023/04/16 00:51:36;;;;;;;15.03;13.53;;;8.80;99.90;;;;;;5031115;28;20411;-86
2023/04/16 00:54:02;;;;;;;11.77;10.63;;;8.90;99.90;;;;;;5031322;28;20394;-86
2023/04/16 00:56:28;;;;;;;11.38;10.27;;;8.80;99.90;;;;;;5030534;28;20880;-86
2023/04/16 00:58:57;;;;;;;11.63;10.57;;;8.80;99.90;;;;;;5035502;28;20382;-88
2023/04/16 01:01:23;;;;;;;13.98;12.57;;;8.80;99.90;;;;;;5054660;28;20419;-88
2023/04/16 01:03:49;;;;;;;13.30;11.90;;;8.80;99.90;;;;;;5056911;28;20401;-87
2023/04/16 01:06:16;;;;;;;14.20;12.80;;;8.90;99.90;;;;;;5066172;28;20678;-88
2023/04/16 01:08:42;;;;;;;14.48;12.98;;;8.80;99.90;;;;;;5058165;28;20891;-87
2023/04/16 01:11:09;;;;;;;13.73;12.33;;;9.00;99.90;;;;;;5033045;28;20387;-87
2023/04/16 01:13:38;;;;;;;13.23;11.95;;;8.90;99.90;;;;;;5032642;28;20391;-87
2023/04/16 01:16:07;;;;;;;13.00;11.70;;;8.80;99.90;;;;;;5030489;28;20391;-87
2023/04/16 01:18:33;;;;;;;13.70;12.32;;;8.80;99.90;;;;;;5030192;28;20394;-86
2023/04/16 01:20:59;;;;;;;12.90;11.60;;;8.80;99.90;;;;;;5030453;28;20379;-87
2023/04/16 01:23:25;;;;;;;13.32;11.77;;;8.90;99.90;;;;;;5047212;28;20475;-86
2023/04/16 01:25:50;;;;;;;13.10;11.80;;;8.90;99.90;;;;;;5029890;28;20506;-87
2023/04/16 01:28:16;;;;;;;12.18;10.98;;;8.90;99.90;;;;;;5029913;28;20791;-86
2023/04/16 01:30:41;;;;;;;13.05;11.75;;;8.80;99.90;;;;;;5031540;28;20410;-86
2023/04/16 01:33:09;;;;;;;12.63;11.33;;;8.80;99.90;;;;;;5032025;28;20920;-86
2023/04/16 01:35:35;;;;;;;13.13;11.40;;;8.70;99.90;;;;;;5029798;28;20830;-87
2023/04/16 01:38:01;;;;;;;12.20;11.00;;;8.80;99.90;;;;;;5030075;28;20398;-86
2023/04/16 01:40:27;;;;;;;12.95;10.90;;;8.80;99.90;;;;;;5030170;28;20390;-86
2023/04/16 01:42:52;;;;;;;11.40;10.20;;;8.90;99.90;;;;;;5031581;28;20761;-86
2023/04/16 01:45:18;;;;;;;12.73;11.13;;;8.90;99.90;;;;;;5029954;28;20494;-87
2023/04/16 01:47:43;;;;;;;11.67;10.57;;;8.80;99.90;;;;;;5046647;28;20411;-86
2023/04/16 01:50:10;;;;;;;12.53;11.23;;;8.80;99.90;;;;;;5031271;28;20864;-86
2023/04/16 01:52:36;;;;;;;12.27;11.07;;;8.80;99.90;;;;;;5031718;28;20398;-86
2023/04/16 01:55:02;;;;;;;10.82;9.73;;;8.80;99.90;;;;;;5035991;28;21083;-86
2023/04/16 01:57:27;;;;;;;11.25;10.18;;;8.80;99.90;;;;;;5034020;28;20861;-85
2023/04/16 01:59:53;;;;;;;11.40;10.20;;;8.80;99.90;;;;;;5014882;28;20388;-86
2023/04/16 02:02:19;;;;;;;11.57;10.47;;;8.80;99.90;;;;;;5014146;28;20415;-86
2023/04/16 02:04:45;;;;;;;10.40;9.50;;;8.90;99.90;;;;;;5013128;28;20399;-86
2023/04/16 02:07:11;;;;;;;10.18;9.18;;;8.90;99.90;;;;;;5011502;28;20851;-86
2023/04/16 02:09:38;;;;;;;10.98;9.88;;;8.80;99.90;;;;;;5010209;28;20401;-86
2023/04/16 02:12:04;;;;;;;10.85;9.75;;;8.90;99.90;;;;;;5009356;28;20412;-86
2023/04/16 02:14:31;;;;;;;11.55;10.35;;;8.80;99.90;;;;;;5026646;28;20404;-86
2023/04/16 02:16:57;;;;;;;11.38;10.27;;;8.90;99.90;;;;;;5013467;28;20400;-86
2023/04/16 02:19:22;;;;;;;12.20;11.00;;;8.70;99.90;;;;;;5036141;28;20408;-87
2023/04/16 02:21:50;;;;;;;11.07;9.90;;;8.80;99.90;;;;;;5037047;28;20480;-85
2023/04/16 02:24:15;;;;;;;11.03;9.93;;;8.90;99.90;;;;;;5034767;28;20408;-84
2023/04/16 02:26:41;;;;;;;10.00;9.00;;;8.90;99.90;;;;;;5020611;28;20476;-83
2023/04/16 02:29:06;;;;;;;10.87;9.87;;;8.80;99.90;;;;;;5024585;28;20918;-83
2023/04/16 02:31:32;;;;;;;11.35;10.23;;;8.80;99.90;;;;;;5016456;28;20409;-82
2023/04/16 02:33:58;;;;;;;10.77;9.77;;;8.70;99.90;;;;;;5017177;28;20400;-83
2023/04/16 02:36:23;;;;;;;10.60;9.50;;;8.80;99.90;;;;;;5016149;28;20393;-82
2023/04/16 02:38:49;;;;;;;10.55;9.50;;;8.80;99.90;;;;;;5029662;28;20379;-84
2023/04/16 02:41:14;;;;;;;10.10;9.10;;;8.90;99.90;;;;;;5034023;28;20397;-85
2023/04/16 02:43:40;;;;;;;9.70;8.80;;;8.80;99.90;;;;;;5035385;28;20391;-85
2023/04/16 02:46:05;;;;;;;9.40;8.50;;;9.00;99.90;;;;;;5051565;28;20379;-85
2023/04/16 02:48:31;;;;;;;9.20;8.30;;;8.90;99.90;;;;;;5038585;28;20857;-85
2023/04/16 02:50:57;;;;;;;10.60;9.50;;;8.90;99.90;;;;;;5040547;28;20764;-86
2023/04/16 02:53:22;;;;;;;10.07;9.07;;;8.80;99.90;;;;;;5038885;28;20427;-83
2023/04/16 02:55:53;;;;;;;9.40;8.60;;;8.90;99.90;;;;;;5052726;28;20454;-85
2023/04/16 02:58:23;;;;;;;8.90;8.10;;;8.80;99.90;;;;;;5037378;28;20414;-85
2023/04/16 03:00:49;;;;;;;9.63;8.73;;;8.80;99.90;;;;;;5035877;28;20757;-85
2023/04/16 03:03:15;;;;;;;9.32;8.43;;;8.80;99.90;;;;;;5037623;28;20833;-85
2023/04/16 03:05:41;;;;;;;10.30;9.30;;;8.90;99.90;;;;;;5036497;28;20391;-86
2023/04/16 03:08:06;;;;;;;9.57;8.68;;;8.80;99.90;;;;;;5038296;28;20397;-85
2023/04/16 03:10:33;;;;;;;9.27;8.38;;;8.90;99.90;;;;;;5036335;28;20427;-84
2023/04/16 03:12:59;;;;;;;9.82;8.82;;;8.90;99.90;;;;;;5035338;28;20876;-85
2023/04/16 03:15:25;;;;;;;9.88;8.90;;;8.80;99.90;;;;;;5035807;28;20438;-85
2023/04/16 03:17:50;;;;;;;10.07;9.07;;;8.70;99.90;;;;;;5035013;28;20391;-85
2023/04/16 03:20:16;;;;;;;9.30;8.40;;;8.80;99.90;;;;;;5035722;28;20827;-84
2023/04/16 03:22:42;;;;;;;9.10;8.30;;;8.80;99.90;;;;;;5033496;28;20401;-85
2023/04/16 03:25:08;;;;;;;9.27;8.37;;;8.80;99.90;;;;;;5034084;28;20773;-85
2023/04/16 03:27:34;;;;;;;9.60;8.60;;;8.70;99.90;;;;;;5034313;28;20395;-85
2023/04/16 03:30:00;;;;;;;10.37;9.37;;;8.70;99.90;;;;;;5034782;28;20437;-84
2023/04/16 03:32:26;;;;;;;10.00;9.00;;;8.60;99.90;;;;;;5033474;28;20449;-84
2023/04/16 03:34:51;;;;;;;10.88;9.70;;;8.50;99.90;;;;;;5034190;28;20391;-85
2023/04/16 03:37:17;;;;;;;10.37;9.30;;;8.60;99.90;;;;;;5033469;28;20410;-85
2023/04/16 03:39:42;;;;;;;10.17;9.17;;;8.60;99.90;;;;;;5034936;28;20892;-82
2023/04/16 03:42:08;;;;;;;9.60;8.70;;;8.70;99.90;;;;;;5026802;28;20732;-82
2023/04/16 03:44:34;;;;;;;9.50;8.70;;;8.50;99.90;;;;;;5013905;28;20950;-83
2023/04/16 03:46:59;;;;;;;11.23;9.30;;;8.60;99.90;;;;;;5015135;28;20397;-82
2023/04/16 03:49:25;;;;;;;11.75;9.60;;;8.60;99.90;;;;;;5015049;28;20403;-82
2023/04/16 03:51:50;;;;;;;10.90;9.80;;;8.50;99.90;;;;;;5013628;28;20483;-85
2023/04/16 03:54:16;;;;;;;10.35;9.35;;;8.60;99.90;;;;;;5013611;28;20463;-85
2023/04/16 03:56:41;;;;;;;10.67;9.60;;;8.60;99.90;;;;;;5013901;28;20388;-85
2023/04/16 03:59:08;;;;;;;11.03;9.93;;;8.60;99.90;;;;;;5014247;28;20455;-84
2023/04/16 04:01:33;;;;;;;10.38;9.38;;;8.60;99.90;;;;;;5014815;28;20485;-85
2023/04/16 04:03:59;;;;;;;11.13;10.05;;;8.70;99.90;;;;;;5013417;28;21037;-85
2023/04/16 04:06:25;;;;;;;10.95;9.95;;;8.70;99.90;;;;;;5013551;28;20389;-83
2023/04/16 04:08:50;;;;;;;10.07;9.07;;;8.70;99.90;;;;;;5013193;28;20879;-82
2023/04/16 04:11:16;;;;;;;11.20;10.00;;;8.70;99.90;;;;;;5012459;28;20491;-82
2023/04/16 04:13:41;;;;;;;10.73;9.63;;;8.60;99.90;;;;;;5012306;28;20958;-82
2023/04/16 04:16:07;;;;;;;10.83;9.70;;;8.60;99.90;;;;;;5013691;28;20763;-83
2023/04/16 04:18:32;;;;;;;10.75;9.75;;;8.70;99.90;;;;;;5014333;28;20755;-82
2023/04/16 04:20:58;;;;;;;11.55;10.35;;;8.60;99.90;;;;;;5014166;28;20389;-83
2023/04/16 04:23:23;;;;;;;10.97;9.87;;;8.60;99.90;;;;;;5014695;28;20381;-82
2023/04/16 04:25:49;;;;;;;11.27;10.17;;;8.50;99.90;;;;;;5012228;28;20409;-82
2023/04/16 04:28:14;;;;;;;11.63;10.43;;;8.60;99.90;;;;;;5014409;28;20393;-83
2023/04/16 04:30:40;;;;;;;10.50;9.48;;;8.60;99.90;;;;;;5039022;28;20385;-81
2023/04/16 04:33:06;;;;;;;9.50;8.52;;;8.70;99.90;;;;;;5038449;28;20440;-83
2023/04/16 04:35:32;;;;;;;9.95;8.95;;;8.70;99.90;;;;;;5034671;28;20401;-85
2023/04/16 04:37:57;;;;;;;10.77;9.77;;;8.70;99.90;;;;;;5014781;28;20420;-85
2023/04/16 04:40:23;;;;;;;10.48;9.48;;;8.70;99.90;;;;;;5013613;28;20397;-85
2023/04/16 04:42:48;;;;;;;11.73;9.87;;;8.60;99.90;;;;;;5013833;28;20484;-85
2023/04/16 04:45:14;;;;;;;10.20;9.20;;;8.80;99.90;;;;;;5012446;28;20966;-84
2023/04/16 04:47:39;;;;;;;9.20;8.30;;;8.80;99.90;;;;;;5015999;28;20427;-85
2023/04/16 04:50:06;;;;;;;9.90;9.00;;;8.90;99.90;;;;;;5014769;28;20952;-85
2023/04/16 04:52:31;;;;;;;10.50;9.50;;;8.80;99.90;;;;;;5014335;28;20408;-84
2023/04/16 04:54:56;;;;;;;10.77;9.67;;;8.80;99.90;;;;;;5014771;28;20420;-84
2023/04/16 04:57:22;;;;;;;10.00;9.10;;;8.80;99.90;;;;;;5013620;28;20752;-84
2023/04/16 04:59:48;;;;;;;10.07;9.07;;;8.70;99.90;;;;;;5032293;28;20395;-85
2023/04/16 05:02:13;;;;;;;9.90;9.00;;;8.80;99.90;;;;;;5032682;28;20946;-85
2023/04/16 05:04:39;;;;;;;9.87;8.73;;;8.90;99.90;;;;;;5032462;28;20399;-84
2023/04/16 05:07:05;;;;;;;8.83;8.03;;;8.90;99.90;;;;;;5032481;28;20435;-85
2023/04/16 05:09:30;;;;;;;9.40;8.50;;;8.90;99.90;;;;;;5032142;28;20387;-84
2023/04/16 05:11:56;;;;;;;9.07;8.18;;;9.00;99.90;;;;;;5032217;28;20402;-85
2023/04/16 05:14:22;;;;;;;9.03;7.90;;;9.00;99.90;;;;;;5033097;28;20425;-85
2023/04/16 05:16:47;;;;;;;9.03;8.13;;;8.90;99.90;;;;;;5031597;28;20415;-85
2023/04/16 05:19:13;;;;;;;9.00;8.10;;;8.90;99.90;;;;;;5033175;28;20945;-85
2023/04/16 05:21:39;;;;;;;9.27;8.37;;;9.10;99.90;;;;;;5032684;28;20475;-85
2023/04/16 05:24:05;;;;;;;9.55;8.65;;;8.70;99.90;;;;;;5032998;28;20383;-84
2023/04/16 05:26:30;;;;;;;9.40;8.50;;;8.80;99.90;;;;;;5032383;28;20473;-85
2023/04/16 05:28:56;;;;;;;9.10;8.20;;;8.80;99.90;;;;;;5031964;28;20395;-85
2023/04/16 05:31:21;;;;;;;10.30;9.40;;;8.70;99.90;;;;;;5032287;28;20407;-85
2023/04/16 05:33:47;;;;;;;10.30;9.30;;;8.80;99.90;;;;;;5032986;28;20441;-85
2023/04/16 05:36:12;;;;;;;10.55;9.55;;;8.60;99.90;;;;;;5032339;28;20390;-82
2023/04/16 05:38:38;;;;;;;9.90;9.00;;;8.70;99.90;;;;;;5032613;28;20758;-82
2023/04/16 05:41:03;;;;;;;10.77;9.67;;;8.80;99.90;;;;;;5032344;28;20900;-82
2023/04/16 05:43:29;;;;;;;11.00;9.50;;;8.70;99.90;;;;;;5033740;28;20490;-83
2023/04/16 05:45:55;;;;;;;11.07;9.97;;;8.70;99.90;;;;;;5033822;28;20379;-85
2023/04/16 05:48:20;;;;;;;10.00;9.10;;;8.60;99.90;;;;;;5031159;28;20915;-84
2023/04/16 05:50:46;;;;;;;10.50;9.48;;;8.70;99.90;;;;;;5032714;28;20474;-84
2023/04/16 05:53:12;;;;;;;10.67;9.67;;;8.70;99.90;;;;;;5032656;28;20813;-85
2023/04/16 05:55:38;;;;;;;10.70;9.70;;;8.80;99.90;;;;;;5030829;28;20391;-86
2023/04/16 05:58:04;;;;;;;10.10;9.20;;;8.70;99.90;;;;;;5029960;28;20394;-86
2023/04/16 06:00:31;;;;;;;9.33;8.53;;;8.80;99.90;;;;;;5030104;28;20394;-85
2023/04/16 06:02:56;;;;;;;10.35;8.90;;;8.80;99.90;;;;;;5029605;28;20911;-86
2023/04/16 06:05:23;;;;;;;10.52;9.43;;;8.70;99.90;;;;;;5029582;28;20390;-84
2023/04/16 06:07:49;;;;;;;9.80;8.90;;;8.70;99.90;;;;;;5029774;28;20477;-86
2023/04/16 06:10:14;;;;;;;9.93;8.93;;;8.70;99.90;;;;;;5029671;28;20506;-86
2023/04/16 06:12:40;;;;;;;9.95;8.95;;;8.70;99.90;;;;;;5032831;28;20434;-86
2023/04/16 06:15:06;;;;;;;10.43;9.43;;;8.60;99.90;;;;;;5052870;28;20414;-86
2023/04/16 06:17:32;;;;;;;9.55;8.75;;;8.60;99.90;;;;;;5046267;28;20410;-86
2023/04/16 06:19:57;;;;;;;9.35;8.45;;;8.60;99.90;;;;;;5031085;28;20389;-85
2023/04/16 06:22:23;;;;;;;9.50;8.67;;;8.70;99.90;;;;;;5046950;28;20380;-85
2023/04/16 06:24:49;;;;;;;9.87;9.00;;;8.80;99.90;;;;;;5030688;28;20393;-86
2023/04/16 06:27:14;;;;;;;9.02;8.23;;;8.90;99.90;;;;;;5029453;28;20391;-85
2023/04/16 06:29:40;;;;;;;8.77;7.97;;;8.80;99.90;;;;;;5030175;28;20390;-85
2023/04/16 06:32:06;;;;;;;8.70;7.90;;;8.90;99.90;;;;;;5030744;28;20402;-85
2023/04/16 06:34:32;;;;;;;8.60;7.80;;;8.90;99.90;;;;;;5048295;28;20387;-85
2023/04/16 06:36:57;;;;;;;9.07;8.35;;;8.90;99.90;;;;;;5031320;28;20406;-85
2023/04/16 06:39:23;;;;;;;8.60;7.80;;;8.90;99.90;;;;;;5031090;28;20391;-85
2023/04/16 06:41:48;;;;;;;8.73;7.93;;;8.90;99.90;;;;;;5064300;28;20411;-85
2023/04/16 06:44:14;;;;;;;8.60;7.80;;;8.70;99.90;;;;;;5056632;28;20399;-86
2023/04/16 06:46:40;;;;;;;8.60;7.80;;;8.90;99.90;;;;;;5055323;28;20417;-86
2023/04/16 06:49:06;;;;;;;9.13;8.25;;;8.90;99.90;;;;;;5054487;28;20411;-85
2023/04/16 06:51:32;;;;;;;9.52;7.70;;;8.90;99.90;;;;;;5029928;28;20402;-85
2023/04/16 06:53:57;;;;;;;9.17;8.27;;;9.00;99.90;;;;;;5029527;28;20383;-86
2023/04/16 06:56:23;;;;;;;8.47;7.67;;;8.90;99.90;;;;;;5031536;28;20429;-85
2023/04/16 06:58:49;;;;;;;8.40;7.60;;;8.90;99.90;;;;;;5034278;28;20391;-85
2023/04/16 07:01:16;;;;;;;8.45;7.65;;;8.80;99.90;;;;;;5030939;28;20394;-85
2023/04/16 07:03:42;;;;;;;9.77;8.90;;;8.80;99.90;;;;;;5029482;28;20418;-84
2023/04/16 07:06:07;;;;;;;9.90;8.90;;;8.80;99.90;;;;;;5028932;28;20379;-85
2023/04/16 07:08:33;;;;;;;9.38;8.48;;;8.90;99.90;;;;;;5031581;28;20399;-85
2023/04/16 07:10:58;;;;;;;9.00;8.20;;;8.90;99.90;;;;;;5029085;28;20383;-85
2023/04/16 07:13:24;;;;;;;8.90;8.10;;;9.00;99.90;;;;;;5018356;28;20412;-85
2023/04/16 07:15:50;;;;;;;9.75;8.85;;;8.90;99.90;;;;;;5014919;28;20454;-85
2023/04/16 07:18:15;;;;;;;10.03;9.13;;;8.80;99.90;;;;;;5018335;28;20388;-85
2023/04/16 07:20:41;;;;;;;9.87;8.97;;;8.80;99.90;;;;;;5009840;28;20491;-85
2023/04/16 07:23:06;;;;;;;9.60;8.70;;;8.80;99.90;;;;;;5010289;28;20408;-86
2023/04/16 07:25:32;;;;;;;10.03;9.00;;;8.60;99.90;;;;;;5009082;28;20537;-85
2023/04/16 07:27:57;;;;;;;10.57;9.55;;;8.60;99.90;;;;;;5009414;28;20393;-86
2023/04/16 07:30:23;;;;;;;11.27;8.93;;;8.50;99.90;;;;;;5009882;28;20389;-86
2023/04/16 07:32:50;;;;;;;10.50;9.50;;;8.70;99.90;;;;;;5009772;28;20403;-85
2023/04/16 07:35:16;;;;;;;10.02;9.13;;;8.60;99.90;;;;;;5013566;28;20443;-86
2023/04/16 07:37:41;;;;;;;9.38;8.48;;;8.50;99.90;;;;;;5013034;28;20404;-86
2023/04/16 07:40:08;;;;;;;10.00;9.00;;;8.50;99.90;;;;;;5014182;28;20376;-83
2023/04/16 07:42:34;;;;;;;10.52;9.52;;;8.40;99.90;;;;;;5016025;28;20423;-85
2023/04/16 07:45:00;;;;;;;9.55;8.65;;;8.50;99.90;;;;;;5016492;28;20389;-85
2023/04/16 07:47:25;;;;;;;10.38;9.18;;;8.40;99.90;;;;;;5014764;28;20396;-86
2023/04/16 07:49:52;;;;;;;9.40;8.57;;;8.50;99.90;;;;;;5012852;28;20397;-85
2023/04/16 07:52:17;;;;;;;9.30;8.40;;;8.50;99.90;;;;;;5014246;28;20404;-86
2023/04/16 07:54:43;;;;;;;9.30;8.50;;;8.60;99.90;;;;;;5012975;28;20397;-85
2023/04/16 07:57:08;;;;;;;9.07;8.27;;;8.60;99.90;;;;;;5012620;28;20385;-86
2023/04/16 07:59:34;;;;;;;9.27;8.43;;;8.60;99.90;;;;;;5045234;28;20392;-86
2023/04/16 08:01:59;;;;;;;8.48;7.78;;;8.70;99.90;;;;;;5018039;28;20396;-85
2023/04/16 08:04:25;;;;;;;9.30;8.40;;;8.70;99.90;;;;;;5012698;28;20479;-85
2023/04/16 08:06:51;;;;;;;9.60;8.60;;;8.60;99.90;;;;;;5013521;28;20416;-85
2023/04/16 08:09:17;;;;;;;9.05;8.02;;;8.70;99.90;;;;;;5012218;28;20396;-85
2023/04/16 08:11:43;;;;;;;8.10;7.40;;;8.70;99.90;;;;;;5012304;28;20419;-85
2023/04/16 08:14:08;;;;;;;8.50;7.70;;;8.50;99.90;;;;;;5012416;28;20487;-85
2023/04/16 08:16:34;;;;;;;9.00;8.10;;;8.60;99.90;;;;;;5011844;28;20389;-86
2023/04/16 08:19:00;;;;;;;8.10;7.30;;;8.70;99.90;;;;;;5012503;28;20388;-85
2023/04/16 08:21:26;;;;;;;8.05;7.35;;;8.50;99.90;;;;;;5018803;28;20428;-85
2023/04/16 08:23:52;;;;;;;9.13;8.27;;;8.60;99.90;;;;;;5019545;28;20397;-86
2023/04/16 08:26:18;;;;;;;8.30;7.60;;;8.50;99.90;;;;;;5024472;23;20532;-87
2023/04/16 08:28:44;;;;;;;8.90;8.00;;;8.70;99.90;;;;;;4979661;28;20470;-88
2023/04/16 08:31:10;;;;;;;8.47;7.67;;;8.40;99.90;;;;;;4996736;28;20381;-87
2023/04/16 08:33:35;;;;;;;8.60;7.80;;;8.50;99.90;;;;;;4996550;28;20391;-87
2023/04/16 08:36:01;;;;;;;8.07;7.37;;;8.60;99.90;;;;;;4996405;28;20399;-86
2023/04/16 08:38:26;;;;;;;8.10;7.30;;;8.60;99.90;;;;;;4996815;28;20418;-87
2023/04/16 08:40:53;;;;;;;8.23;7.43;;;8.80;99.90;;;;;;4979485;28;20422;-88
2023/04/16 08:43:22;;;;;;;8.70;7.70;;;8.60;99.90;;;;;;4995156;28;20386;-87
2023/04/16 08:45:48;;;;;;;8.60;7.80;;;8.60;99.90;;;;;;4976236;28;20485;-88
2023/04/16 08:48:14;;;;;;;8.40;7.70;;;8.70;99.90;;;;;;4977435;28;20453;-86
2023/04/16 08:50:40;;;;;;;8.57;7.68;;;8.90;99.90;;;;;;4994143;28;20390;-87
2023/04/16 08:53:09;;;;;;;8.80;8.00;;;8.60;99.90;;;;;;4977197;28;20422;-87
2023/04/16 08:55:39;;;;;;;8.67;7.60;;;8.30;99.90;;;;;;4977523;28;20885;-87
2023/04/16 08:58:12;;;;;;;8.50;7.70;;;9.60;99.90;;;;;;4994686;28;20379;-87
2023/04/16 09:00:39;;;;;;;8.80;7.97;;;8.60;99.90;;;;;;4972507;28;20422;-86
2023/04/16 09:03:06;;;;;;;10.18;9.15;;;8.50;99.90;;;;;;4989188;28;20400;-87
2023/04/16 09:05:32;;;;;;;9.07;8.27;;;8.70;99.90;;;;;;4985698;28;20911;-87
2023/04/16 09:07:58;;;;;;;8.70;7.90;;;8.60;99.90;;;;;;4989999;28;20386;-87
2023/04/16 09:10:25;;;;;;;9.00;8.20;;;8.60;99.90;;;;;;4981935;28;20540;-87
2023/04/16 09:12:54;;;;;;;9.75;8.57;;;9.50;99.90;;;;;;4978767;28;20784;-87
2023/04/16 09:15:20;;;;;;;8.97;8.07;;;8.60;99.90;;;;;;4964208;28;20390;-86
2023/04/16 09:17:45;;;;;;;9.80;8.60;;;8.80;99.90;;;;;;4977203;28;20907;-87
2023/04/16 09:20:11;;;;;;;9.07;8.18;;;8.60;99.90;;;;;;4977061;28;20394;-87
2023/04/16 09:22:39;;;;;;;8.93;8.10;;;8.60;99.90;;;;;;4977468;28;20390;-87
2023/04/16 09:25:05;;;;;;;8.93;8.13;;;8.50;99.90;;;;;;4995239;28;20474;-87
2023/04/16 09:27:31;;;;;;;8.65;7.85;;;8.80;99.90;;;;;;4978038;28;20406;-89
2023/04/16 09:29:57;;;;;;;9.13;8.27;;;8.70;99.90;;;;;;4977439;28;20812;-87
2023/04/16 09:32:26;;;;;;;9.32;8.43;;;8.60;99.90;;;;;;4995372;28;20513;-87
2023/04/16 09:34:57;;;;;;;10.13;9.00;;;8.70;99.90;;;;;;4977715;28;20843;-87
2023/04/16 09:37:23;;;;;;;9.35;8.40;;;8.80;99.90;;;;;;4979947;28;20417;-87
2023/04/16 09:39:57;;;;;;;10.55;8.68;;;8.60;99.90;;;;;;4980212;28;20391;-86
2023/04/16 09:42:26;;;;;;;9.70;8.70;;;8.50;99.90;;;;;;4997705;28;20386;-86
2023/04/16 09:44:52;;;;;;;10.38;8.70;;;8.40;99.90;;;;;;4986297;28;20417;-86
2023/04/16 09:47:17;;;;;;;9.50;8.30;;;8.40;99.90;;;;;;4995324;28;20394;-85
2023/04/16 09:49:43;;;;;;;10.27;8.52;;;8.40;99.90;;;;;;5011783;28;20390;-85
2023/04/16 09:52:17;;;;;;;11.57;9.55;;;10.10;99.90;;;;;;4993706;28;20413;-86
2023/04/16 09:54:52;;;;;;;10.00;8.93;;;8.30;99.90;;;;;;4996783;28;20390;-85
2023/04/16 09:57:22;;;;;;;10.07;9.07;;;8.40;99.90;;;;;;5015814;28;20425;-86
2023/04/16 09:59:53;;;;;;;11.05;9.85;;;8.00;99.90;;;;;;5013366;28;20398;-86
2023/04/16 10:02:19;;;;;;;10.80;9.43;;;8.40;99.90;;;;;;4983109;28;20883;-85
2023/04/16 10:04:49;;;;;;;10.60;8.85;;;8.40;99.90;;;;;;4982185;28;20390;-86
2023/04/16 10:07:15;;;;;;;9.73;8.68;;;8.40;99.90;;;;;;4981190;28;20406;-86
2023/04/16 10:09:48;;;;;;;10.27;9.27;;;8.40;99.90;;;;;;4998943;28;20401;-86
2023/04/16 10:12:14;;;;;;;9.48;8.40;;;8.40;99.90;;;;;;4999623;28;20406;-86
2023/04/16 10:14:41;;;;;;;11.50;10.32;;;8.40;99.90;;;;;;4998671;28;20474;-86
2023/04/16 10:17:07;;;;;;;10.88;9.77;;;8.50;99.90;;;;;;4991883;28;20442;-85
2023/04/16 10:19:34;;;;;;;12.45;10.52;;;8.40;99.90;;;;;;4975682;28;20487;-86
2023/04/16 10:22:00;;;;;;;10.75;9.65;;;8.30;99.90;;;;;;4963662;28;20538;-85
2023/04/16 10:24:30;;;;;;;11.65;9.75;;;8.40;99.90;;;;;;4962693;28;20560;-86
2023/04/16 10:26:58;;;;;;;12.68;10.38;;;8.40;99.90;;;;;;4977848;28;20514;-87
2023/04/16 10:29:26;;;;;;;12.75;9.75;;;8.50;99.90;;;;;;4980334;28;20788;-85
2023/04/16 10:31:54;;;;;;;12.85;10.60;;;8.30;99.90;;;;;;4980624;28;20415;-86
2023/04/16 10:34:20;;;;;;;12.27;10.95;;;8.30;99.90;;;;;;4962298;28;20404;-86
2023/04/16 10:36:52;;;;;;;13.48;10.73;;;8.30;99.90;;;;;;4980130;28;20391;-86
2023/04/16 10:39:20;;;;;;;16.00;12.50;;;8.70;99.90;;;;;;4979083;28;20388;-85
2023/04/16 10:41:46;;;;;;;12.77;11.00;;;8.30;99.90;;;;;;4979748;28;20388;-86
2023/04/16 10:44:12;;;;;;;12.15;10.95;;;8.40;99.90;;;;;;4977986;28;20955;-87
2023/04/16 10:46:40;;;;;;;14.55;11.52;;;8.50;99.90;;;;;;4962698;28;20407;-86
2023/04/16 10:49:23;;;;;;;11.82;10.02;;;8.30;99.90;;;;;;4979010;28;20438;-86
2023/04/16 10:51:56;;;;;;;15.13;11.60;;;8.40;99.90;;;;;;4978697;28;20416;-85
2023/04/16 10:54:27;;;;;;;14.82;11.55;;;8.20;99.90;;;;;;4979128;28;20395;-86
2023/04/16 10:56:56;;;;;;;15.02;12.23;;;8.40;99.90;;;;;;4961507;28;20920;-85
2023/04/16 10:59:22;;;;;;;12.52;10.48;;;8.50;99.90;;;;;;4967603;28;20430;-86
2023/04/16 11:01:51;;;;;;;12.57;10.32;;;8.40;99.90;;;;;;4968105;28;20401;-84
2023/04/16 11:04:26;;;;;;;12.57;11.00;;;8.50;99.90;;;;;;4986736;28;20488;-85
2023/04/16 11:07:10;;;;;;;12.32;11.02;;;8.50;99.90;;;;;;4971218;28;20497;-85
2023/04/16 11:09:58;;;;;;;13.25;11.10;;;8.50;99.90;;;;;;4998873;28;20459;-85
2023/04/16 11:12:26;;;;;;;15.50;10.82;;;8.60;99.90;;;;;;5013902;28;20416;-82
2023/04/16 11:14:56;;;;;;;12.43;10.10;;;8.70;99.90;;;;;;4998228;28;20394;-84
2023/04/16 11:17:26;;;;;;;12.97;10.23;;;8.70;99.90;;;;;;4990960;28;20468;-85
2023/04/16 11:19:52;;;;;;;11.48;10.10;;;8.60;99.90;;;;;;5005895;28;20392;-84
2023/04/16 11:22:18;;;;;;;13.75;10.45;;;8.80;99.90;;;;;;4989696;28;20549;-85
2023/04/16 11:24:45;;;;;;;12.40;9.93;;;8.80;99.90;;;;;;4989711;28;20413;-85
2023/04/16 11:27:12;;;;;;;11.90;9.52;;;8.80;99.90;;;;;;4971409;28;20445;-84
2023/04/16 11:29:38;;;;;;;13.02;9.93;;;8.50;99.90;;;;;;4970938;28;20750;-85
2023/04/16 11:32:03;;;;;;;11.07;9.60;;;8.90;99.90;;;;;;4989164;28;20461;-84
2023/04/16 11:34:29;;;;;;;12.30;10.15;;;8.90;99.90;;;;;;4988529;28;20428;-85
2023/04/16 11:36:55;;;;;;;10.90;9.07;;;8.90;99.90;;;;;;4988474;28;20410;-85
2023/04/16 11:39:22;;;;;;;12.02;10.00;;;8.80;99.90;;;;;;4989605;28;20378;-85
2023/04/16 11:41:48;;;;;;;11.00;9.43;;;8.90;99.90;;;;;;4970988;28;20768;-84
2023/04/16 11:44:25;;;;;;;10.93;9.38;;;9.00;99.90;;;;;;4992145;28;20397;-84
2023/04/16 11:46:51;;;;;;;10.13;9.03;;;9.20;99.90;;;;;;4997427;28;20502;-83
2023/04/16 11:49:26;;;;;;;11.33;9.20;;;9.30;99.90;;;;;;4995839;28;20448;-83
2023/04/16 11:51:52;;;;;;;10.63;9.45;;;9.30;99.90;;;;;;4982223;28;20407;-83
2023/04/16 11:54:22;;;;;;;10.63;9.43;;;9.50;99.90;;;;;;4983619;28;20463;-83
2023/04/16 11:56:50;;;;;;;9.95;8.95;;;9.40;99.90;;;;;;4997056;28;20415;-84
2023/04/16 11:59:21;;;;;;;10.63;9.18;;;9.40;99.90;;;;;;4992293;28;20445;-84
2023/04/16 12:01:52;;;;;;;10.77;9.15;;;9.30;99.90;;;;;;4988693;28;20392;-83
2023/04/16 12:04:28;;;;;;;9.95;8.10;;;9.40;99.90;;;;;;5006327;28;20391;-82
2023/04/16 12:07:10;;;;;;;11.05;9.50;;;9.40;99.90;;;;;;4990302;28;20388;-84
2023/04/16 12:09:37;;;;;;;10.50;9.18;;;9.50;99.90;;;;;;4987936;28;20491;-84
2023/04/16 12:12:03;;;;;;;12.20;9.70;;;10.60;99.90;;;;;;4994721;28;20482;-85
2023/04/16 12:14:30;;;;;;;10.77;9.60;;;9.70;99.90;;;;;;4970670;28;20430;-83
2023/04/16 12:17:15;;;;;;;10.38;8.82;;;9.60;99.90;;;;;;4970662;28;20427;-84
2023/04/16 12:19:51;;;;;;;11.65;9.30;;;9.60;99.90;;;;;;4970901;28;20772;-84
2023/04/16 12:22:17;;;;;;;11.88;10.23;;;9.50;99.90;;;;;;4969409;28;20425;-83
2023/04/16 12:24:42;;;;;;;10.60;9.50;;;9.50;99.90;;;;;;4987856;28;21269;-84
2023/04/16 12:27:08;;;;;;;11.93;9.60;;;9.50;99.90;;;;;;4985879;28;20491;-83
2023/04/16 12:29:34;;;;;;;11.55;9.02;;;9.60;99.90;;;;;;4969069;28;20764;-84
2023/04/16 12:32:00;;;;;;;11.10;9.80;;;9.70;99.90;;;;;;4970623;28;20415;-84
2023/04/16 12:34:26;;;;;;;12.27;10.32;;;9.80;99.90;;;;;;4986735;28;20426;-84
2023/04/16 12:37:09;;;;;;;11.17;9.10;;;9.80;99.90;;;;;;4988139;28;20388;-84
2023/04/16 12:39:35;;;;;;;11.10;9.77;;;9.90;99.90;;;;;;4971566;28;20425;-84
2023/04/16 12:42:02;;;;;;;11.60;10.10;;;9.80;99.90;;;;;;4987115;28;20400;-85
2023/04/16 12:44:28;;;;;;;10.45;9.35;;;9.70;99.90;;;;;;4987782;28;20421;-85